Página principal
METAR-TAF:

METAR-TAF

Aeroportos :

Beirute, Líbano

latitude: 33-49N, longitude: 035-29E, altura: 29 m

Observação actual do tempo

O boletim foi feito há 18 minutos, às 11:00 UTC
Vento 8 kt de oes-sudoeste
Temperatura 30°C
Humidade 59%
Pressão 1008 hPa
Visibilidade: 6000 m
Nuvens dispersasa uma altura de 3000 ft

METAR: OLBA 191100Z 25008KT 6000 SCT030 30/21 Q1008 NOSIG

Hora: 14:18 (11:18 UTC)

Previsão

O boletim foi feito há 7 horas e 18 minutos, às 04:00 UTC
Previsão válida de 19 às 06 UTC a 20 às 12 UTC
Vento 10 kt de sudoeste
Visibilidade: 8000 m
Nuvens fragmentadasa uma altura de 2600 ft
Tornando-se
de 19 às 18 UTC a 19 às 21 UTC
Vento 10 kt de sul
Visibilidade 10 km ou mais
Nuvens dispersasa uma altura de 2600 ft
Tornando-se
de 20 às 06 UTC a 20 às 09 UTC
Vento 10 kt de sudoeste
Visibilidade: 8000 m
Nuvens fragmentadasa uma altura de 2600 ft

TAF: OLBA 190400Z 1906/2012 22010KT 8000 BKN026 BECMG 1918/1921 18010KT 9999 SCT026 BECMG 2006/2009 22010KT 8000 BKN026

Observações e previsões do tempo de mais de 4000 aeroportos (mensagens METAR e TAF).

As estações disponíveis são os pontos amarelos e vermelhos sobre o mapa.

Mova o rato sobre o mapa para ver o nome da estação.

Depois clique no ponto para visualizar as observações e previsões meteorológicas.

Para alterar o mapa : clique nos botões verdes com uma cruz preta para aumentar o zoom; no botão verde com uma pitada de zoom; ou nas setas verdes para mapas adjacentes.


METAR-TAF: